Time;durP1;ratioP1;P1;durP2;ratioP2;P2;SDS_P1;SDS_P2;PMS_P1;PMS_P2;Temp;Humidity;BMP_temperature;BMP_pressure;BME280_temperature;BME280_humidity;BME280_pressure;Samples;Min_cycle;Max_cycle;Signal;HPM_P1;HPM_P2
2021/12/18 00:01:49;;;;;;;99.13;52.63;;;10.40;99.90;;;;;;4964538;28;112452;-62
2021/12/18 00:04:14;;;;;;;100.78;52.45;;;10.40;99.90;;;;;;4963241;28;112678;-61
2021/12/18 00:06:40;;;;;;;106.35;55.33;;;10.40;99.90;;;;;;4946760;28;113209;-62
2021/12/18 00:09:08;;;;;;;103.05;51.40;;;10.30;99.90;;;;;;4963741;28;113502;-62
2021/12/18 00:11:34;;;;;;;99.72;52.03;;;10.30;99.90;;;;;;4964763;28;112344;-62
2021/12/18 00:14:00;;;;;;;120.85;56.15;;;10.30;99.90;;;;;;4965056;28;112517;-61
2021/12/18 00:16:26;;;;;;;110.80;53.80;;;10.20;99.90;;;;;;4964504;28;112890;-62
2021/12/18 00:18:54;;;;;;;104.28;52.85;;;10.20;99.90;;;;;;4964627;28;112806;-63
2021/12/18 00:21:21;;;;;;;107.72;54.35;;;10.20;99.90;;;;;;4965121;28;112338;-63
2021/12/18 00:23:48;;;;;;;105.18;52.70;;;10.20;99.90;;;;;;4964909;28;112766;-63
2021/12/18 00:26:14;;;;;;;103.32;53.50;;;10.10;99.90;;;;;;4963626;28;112913;-63
2021/12/18 00:28:40;;;;;;;106.68;55.70;;;10.10;99.90;;;;;;4963915;28;113626;-62
2021/12/18 00:31:06;;;;;;;104.30;55.95;;;10.10;99.90;;;;;;4964566;28;112542;-61
2021/12/18 00:33:32;;;;;;;109.55;55.65;;;10.10;99.90;;;;;;4962712;28;112528;-61
2021/12/18 00:35:58;;;;;;;108.63;54.67;;;10.00;99.90;;;;;;4963350;28;113223;-61
2021/12/18 00:38:28;;;;;;;108.28;54.38;;;10.00;99.90;;;;;;4963398;28;112708;-61
2021/12/18 00:41:12;;;;;;;106.57;56.88;;;10.00;99.90;;;;;;4964432;28;112922;-62
2021/12/18 00:44:01;;;;;;;105.05;54.58;;;10.00;99.90;;;;;;4964259;28;112946;-61
2021/12/18 00:46:27;;;;;;;116.22;55.97;;;10.00;99.90;;;;;;4962307;28;113280;-61
2021/12/18 00:48:53;;;;;;;111.28;52.83;;;9.90;99.90;;;;;;4963436;28;112417;-61
2021/12/18 00:51:19;;;;;;;113.32;56.95;;;9.90;99.90;;;;;;4962910;28;112807;-62
2021/12/18 00:53:44;;;;;;;105.55;56.28;;;9.90;99.90;;;;;;4963018;28;112716;-61
2021/12/18 00:56:10;;;;;;;114.53;57.08;;;9.90;99.90;;;;;;4963271;28;113242;-62
2021/12/18 00:58:36;;;;;;;110.35;52.95;;;9.90;99.90;;;;;;4962020;28;113577;-62
2021/12/18 01:01:07;;;;;;;107.60;52.60;;;9.80;99.90;;;;;;4963677;28;112487;-62
2021/12/18 01:03:35;;;;;;;111.47;54.55;;;9.80;99.90;;;;;;4962835;28;112919;-60
2021/12/18 01:06:01;;;;;;;111.97;54.50;;;9.70;99.90;;;;;;4961764;28;114694;-61
2021/12/18 01:08:27;;;;;;;106.95;55.15;;;9.70;99.90;;;;;;4961793;28;115194;-62
2021/12/18 01:13:24;;;;;;;114.15;55.33;;;9.70;99.90;;;;;;4963790;28;112350;-62
2021/12/18 01:15:53;;;;;;;112.82;54.45;;;9.70;99.90;;;;;;4962051;28;114361;-60
2021/12/18 01:23:49;;;;;;;112.07;52.53;;;9.70;99.90;;;;;;4963357;28;112673;-61
2021/12/18 01:26:17;;;;;;;106.40;49.28;;;9.70;99.90;;;;;;4963661;28;113095;-61
2021/12/18 01:28:43;;;;;;;101.88;51.05;;;9.70;99.90;;;;;;4977133;22;113938;-67
2021/12/18 01:31:09;;;;;;;99.75;53.22;;;9.70;99.90;;;;;;4962314;28;112586;-67
2021/12/18 01:33:36;;;;;;;105.68;49.95;;;9.60;99.90;;;;;;4964293;28;112774;-68
2021/12/18 01:36:01;;;;;;;105.72;50.83;;;9.60;99.90;;;;;;4963186;28;112993;-66
2021/12/18 01:38:29;;;;;;;103.00;52.45;;;9.60;99.90;;;;;;4963161;28;113367;-66
2021/12/18 01:40:57;;;;;;;101.30;50.55;;;9.50;99.90;;;;;;4949835;28;112764;-70
2021/12/18 01:51:22;;;;;;;98.82;53.05;;;9.40;99.90;;;;;;4967760;28;112667;-69
2021/12/18 01:53:49;;;;;;;;;;;9.40;99.90;;;;;;4948511;28;112415;-68
2021/12/18 01:56:15;;;;;;;102.60;49.05;;;9.40;99.90;;;;;;4964063;28;113666;-68
2021/12/18 01:58:44;;;;;;;103.95;47.63;;;9.30;99.90;;;;;;4965948;28;112353;-67
2021/12/18 02:01:09;;;;;;;99.17;49.67;;;9.30;99.90;;;;;;4966218;28;112554;-66
2021/12/18 02:03:35;;;;;;;92.57;47.17;;;9.30;99.90;;;;;;4965983;28;113057;-68
2021/12/18 02:06:01;;;;;;;88.97;44.65;;;9.20;99.90;;;;;;4965503;28;114300;-69
2021/12/18 02:08:28;;;;;;;91.35;47.00;;;9.20;99.90;;;;;;4965586;28;114758;-63
2021/12/18 02:11:10;;;;;;;93.25;47.10;;;9.10;99.90;;;;;;4964921;28;112573;-64
2021/12/18 02:13:59;;;;;;;101.80;46.22;;;9.10;99.90;;;;;;4966207;28;112489;-69
2021/12/18 02:21:52;;;;;;;82.65;42.40;;;9.10;99.90;;;;;;4965708;28;112785;-66
2021/12/18 02:24:21;;;;;;;87.30;42.45;;;9.10;99.90;;;;;;4962921;28;113258;-67
2021/12/18 02:26:47;;;;;;;85.75;39.22;;;9.20;99.90;;;;;;4965718;28;114405;-68
2021/12/18 02:29:15;;;;;;;82.95;40.85;;;9.30;99.90;;;;;;4965345;28;113412;-67
2021/12/18 02:31:41;;;;;;;76.32;40.22;;;9.30;99.90;;;;;;4965311;28;112782;-68
2021/12/18 02:34:15;;;;;;;69.45;36.63;;;9.30;99.90;;;;;;4964449;28;112442;-67
2021/12/18 02:36:48;;;;;;;75.55;37.40;;;9.30;99.90;;;;;;4965137;28;113161;-67
2021/12/18 02:39:40;;;;;;;65.32;36.25;;;9.20;99.90;;;;;;4964341;28;112970;-67
2021/12/18 02:42:18;;;;;;;57.15;29.98;;;9.20;99.90;;;;;;4965886;28;112619;-65
2021/12/18 02:44:45;;;;;;;59.03;32.03;;;9.20;99.90;;;;;;4965606;28;112740;-67
2021/12/18 02:47:12;;;;;;;60.50;31.65;;;9.10;99.90;;;;;;4965221;28;114686;-67
2021/12/18 02:49:48;;;;;;;56.72;32.10;;;9.10;99.90;;;;;;4965444;28;114011;-68
2021/12/18 02:52:15;;;;;;;61.90;32.25;;;9.10;99.90;;;;;;4965185;28;112380;-66
2021/12/18 02:54:42;;;;;;;61.35;30.13;;;9.10;99.90;;;;;;4966101;28;112607;-68
2021/12/18 02:57:08;;;;;;;63.40;34.85;;;9.10;99.90;;;;;;4964881;28;114114;-68
2021/12/18 02:59:49;;;;;;;58.92;30.52;;;9.10;99.90;;;;;;4965318;28;114427;-67
2021/12/18 03:02:17;;;;;;;63.40;33.10;;;9.10;99.90;;;;;;4965310;28;112527;-68
2021/12/18 03:04:47;;;;;;;63.45;31.40;;;9.00;99.90;;;;;;4966163;28;113660;-66
2021/12/18 03:07:15;;;;;;;55.08;30.90;;;9.10;99.90;;;;;;4964178;28;114288;-66
2021/12/18 03:21:36;;;;;;;64.95;32.80;;;9.10;99.90;;;;;;4965232;28;112471;-67
2021/12/18 03:26:00;;;;;;;62.17;31.80;;;9.00;99.90;;;;;;4965796;28;112416;-68
2021/12/18 03:28:27;;;;;;;61.03;31.60;;;9.00;99.90;;;;;;4961891;28;114462;-67
2021/12/18 03:30:55;;;;;;;56.05;31.17;;;8.90;99.90;;;;;;4963284;28;113036;-67
2021/12/18 03:33:21;;;;;;;63.60;32.78;;;8.90;99.90;;;;;;4964619;28;112630;-67
2021/12/18 03:35:47;;;;;;;59.25;32.53;;;8.90;99.90;;;;;;4964103;28;112446;-68
2021/12/18 03:38:13;;;;;;;61.67;30.77;;;8.90;99.90;;;;;;4964630;28;113170;-67
2021/12/18 03:40:39;;;;;;;58.28;32.05;;;8.80;99.90;;;;;;4963516;28;112633;-67
2021/12/18 03:43:05;;;;;;;60.65;32.58;;;8.80;99.90;;;;;;4964967;28;112367;-67
2021/12/18 03:45:31;;;;;;;62.13;31.00;;;8.70;99.90;;;;;;4963646;28;112591;-65
2021/12/18 03:47:56;;;;;;;54.10;29.15;;;8.70;99.90;;;;;;4964001;28;115164;-68
2021/12/18 03:50:22;;;;;;;58.38;29.92;;;8.60;99.90;;;;;;4963376;28;112499;-67
2021/12/18 03:52:49;;;;;;;60.63;31.30;;;8.60;99.90;;;;;;4964206;28;112800;-68
2021/12/18 03:55:15;;;;;;;58.60;30.25;;;8.60;99.90;;;;;;4965121;28;112707;-68
2021/12/18 03:57:41;;;;;;;64.38;32.33;;;8.60;99.90;;;;;;4963162;28;115894;-67
2021/12/18 04:00:11;;;;;;;56.80;30.05;;;8.60;99.90;;;;;;4963639;28;112667;-68
2021/12/18 04:02:37;;;;;;;60.50;30.27;;;8.50;99.90;;;;;;4964809;28;112590;-67
2021/12/18 04:05:03;;;;;;;67.30;32.15;;;8.50;99.90;;;;;;4947108;28;112769;-64
2021/12/18 04:07:29;;;;;;;59.35;32.00;;;8.50;99.90;;;;;;4942945;28;114102;-68
2021/12/18 04:09:55;;;;;;;58.22;31.08;;;8.60;99.90;;;;;;4956761;28;112536;-66
2021/12/18 04:12:21;;;;;;;64.80;33.13;;;8.60;99.90;;;;;;4962814;28;113322;-67
2021/12/18 04:14:46;;;;;;;57.90;29.88;;;8.60;99.90;;;;;;4962241;28;112503;-67
2021/12/18 04:17:12;;;;;;;58.53;29.13;;;8.70;99.90;;;;;;4963881;28;113010;-66
2021/12/18 04:19:38;;;;;;;59.03;30.73;;;8.70;99.90;;;;;;4963535;28;113509;-66
2021/12/18 04:22:04;;;;;;;55.85;29.48;;;8.70;99.90;;;;;;4964022;28;112657;-67
2021/12/18 04:24:30;;;;;;;59.03;31.25;;;8.60;99.90;;;;;;4964243;28;112535;-67
2021/12/18 04:26:57;;;;;;;57.58;31.63;;;8.60;99.90;;;;;;4963982;28;114241;-67
2021/12/18 04:29:23;;;;;;;51.63;28.65;;;8.60;99.90;;;;;;4963370;28;112593;-67
2021/12/18 04:31:49;;;;;;;60.58;30.95;;;8.50;99.90;;;;;;4962538;28;112801;-67
2021/12/18 04:34:15;;;;;;;60.65;29.83;;;8.40;99.90;;;;;;4963469;28;112533;-68
2021/12/18 04:36:41;;;;;;;64.82;29.27;;;8.40;99.90;;;;;;4963564;28;114289;-68
2021/12/18 04:39:06;;;;;;;60.70;31.88;;;8.30;99.90;;;;;;4963646;28;113380;-66
2021/12/18 04:41:42;;;;;;;57.42;30.27;;;8.30;99.90;;;;;;4964577;28;112367;-67
2021/12/18 04:44:08;;;;;;;54.50;27.25;;;8.30;99.90;;;;;;4964046;28;112531;-69
2021/12/18 04:46:34;;;;;;;60.15;31.38;;;8.30;99.90;;;;;;4962305;28;113677;-68
2021/12/18 04:49:00;;;;;;;58.72;31.52;;;8.30;99.90;;;;;;4961934;28;112571;-70
2021/12/18 04:51:26;;;;;;;60.38;30.35;;;8.30;99.90;;;;;;4964118;28;112303;-67
2021/12/18 04:53:52;;;;;;;55.78;30.20;;;8.30;99.90;;;;;;4961594;28;112427;-66
2021/12/18 04:56:18;;;;;;;59.92;30.45;;;8.30;99.90;;;;;;4962263;28;113111;-65
2021/12/18 04:58:44;;;;;;;51.58;28.23;;;8.30;99.90;;;;;;4962698;28;112894;-68
2021/12/18 05:01:10;;;;;;;54.40;26.42;;;8.30;99.90;;;;;;4964024;28;112733;-66
2021/12/18 05:03:38;;;;;;;56.30;31.08;;;8.20;99.90;;;;;;4964705;28;112634;-68
2021/12/18 05:06:04;;;;;;;54.25;29.10;;;8.10;99.90;;;;;;4961552;28;114164;-66
2021/12/18 05:08:30;;;;;;;53.50;27.92;;;8.10;99.90;;;;;;4963720;28;113571;-68
2021/12/18 05:10:55;;;;;;;53.45;26.63;;;8.00;99.90;;;;;;4963993;28;114535;-67
2021/12/18 05:13:21;;;;;;;54.53;28.42;;;7.90;99.90;;;;;;4965577;28;112407;-64
2021/12/18 05:15:47;;;;;;;52.17;26.88;;;7.90;99.90;;;;;;4960303;28;113066;-67
2021/12/18 05:18:13;;;;;;;56.47;28.70;;;7.80;99.90;;;;;;4964822;28;112716;-68
2021/12/18 05:20:39;;;;;;;51.05;26.70;;;7.80;99.90;;;;;;4963890;28;113664;-69
2021/12/18 05:23:04;;;;;;;52.90;28.40;;;7.70;99.90;;;;;;4967107;28;112498;-67
2021/12/18 05:25:30;;;;;;;59.80;29.42;;;7.60;99.90;;;;;;4965030;28;114012;-65
2021/12/18 05:27:56;;;;;;;53.72;30.33;;;7.60;99.90;;;;;;4966166;28;113514;-68
2021/12/18 05:30:22;;;;;;;56.78;29.20;;;7.60;99.90;;;;;;4967048;28;113207;-67
2021/12/18 05:32:48;;;;;;;51.13;28.13;;;7.50;99.90;;;;;;4967397;28;112494;-67
2021/12/18 05:35:17;;;;;;;53.05;27.70;;;7.50;99.90;;;;;;4966424;28;114429;-66
2021/12/18 05:37:47;;;;;;;54.35;29.50;;;7.50;99.90;;;;;;4966002;28;112581;-65
2021/12/18 05:40:22;;;;;;;52.28;27.50;;;7.40;99.90;;;;;;4965366;28;112983;-68
2021/12/18 05:42:50;;;;;;;49.65;25.92;;;7.30;99.90;;;;;;4967542;28;112696;-66
2021/12/18 05:45:16;;;;;;;47.08;24.80;;;7.30;99.90;;;;;;4966276;28;114294;-70
2021/12/18 05:47:44;;;;;;;48.75;26.42;;;7.30;99.90;;;;;;4966684;28;112461;-68
2021/12/18 05:50:11;;;;;;;43.05;25.30;;;7.20;99.90;;;;;;4967031;28;112613;-65
2021/12/18 05:52:38;;;;;;;42.65;23.70;;;7.20;99.90;;;;;;4966645;28;112631;-68
2021/12/18 05:55:04;;;;;;;46.33;24.55;;;7.20;99.90;;;;;;4965650;28;113750;-67
2021/12/18 05:57:30;;;;;;;42.83;24.25;;;7.20;99.90;;;;;;4965175;28;113306;-62
2021/12/18 05:59:56;;;;;;;42.63;22.08;;;7.10;99.90;;;;;;4966885;28;112786;-68
2021/12/18 06:02:22;;;;;;;41.67;23.75;;;7.10;99.90;;;;;;4966426;28;113222;-66
2021/12/18 06:04:47;;;;;;;41.55;22.35;;;7.00;99.90;;;;;;4966666;28;112948;-69
2021/12/18 06:07:27;;;;;;;39.03;19.88;;;7.10;99.90;;;;;;4965225;28;113393;-67
2021/12/18 06:09:54;;;;;;;40.15;21.45;;;6.90;99.90;;;;;;4966157;28;112728;-70
2021/12/18 06:12:20;;;;;;;34.80;20.08;;;6.90;99.90;;;;;;4966889;28;112937;-67
2021/12/18 06:14:46;;;;;;;33.13;19.30;;;6.80;99.90;;;;;;4963608;28;115762;-70
2021/12/18 06:17:12;;;;;;;36.13;20.27;;;6.60;99.90;;;;;;4965197;28;112352;-65
2021/12/18 06:19:39;;;;;;;40.20;19.10;;;6.50;99.90;;;;;;4965998;28;112256;-67
2021/12/18 06:22:05;;;;;;;31.23;19.08;;;6.50;99.90;;;;;;4965986;28;114164;-65
2021/12/18 06:24:31;;;;;;;32.00;18.48;;;6.40;99.90;;;;;;4965523;28;113110;-65
2021/12/18 06:26:57;;;;;;;31.95;19.30;;;6.30;99.90;;;;;;4965133;28;112583;-67
2021/12/18 06:29:23;;;;;;;32.47;18.70;;;6.20;99.90;;;;;;4965968;28;112565;-69
2021/12/18 06:31:49;;;;;;;30.42;18.25;;;6.10;99.90;;;;;;4966115;28;112498;-67
2021/12/18 06:34:16;;;;;;;35.00;21.15;;;6.00;99.90;;;;;;4961813;28;113682;-66
2021/12/18 06:36:42;;;;;;;36.83;18.35;;;6.00;99.90;;;;;;4965136;28;113645;-63
2021/12/18 06:39:08;;;;;;;34.03;18.98;;;5.90;99.90;;;;;;4964861;28;112401;-67
2021/12/18 06:41:35;;;;;;;29.63;17.85;;;5.80;99.90;;;;;;4965101;28;112675;-66
2021/12/18 06:44:01;;;;;;;30.95;18.13;;;5.80;99.90;;;;;;4964353;28;114155;-66
2021/12/18 06:46:27;;;;;;;33.97;20.13;;;5.80;99.90;;;;;;4964164;28;113910;-66
2021/12/18 06:48:52;;;;;;;35.92;20.77;;;5.70;99.90;;;;;;4965386;28;113202;-67
2021/12/18 06:51:19;;;;;;;40.03;21.33;;;5.70;99.90;;;;;;4965441;28;112663;-65
2021/12/18 06:53:46;;;;;;;38.83;20.90;;;5.70;99.90;;;;;;4963457;28;114631;-64
2021/12/18 06:56:12;;;;;;;39.42;21.23;;;5.70;99.90;;;;;;4964823;28;112972;-67
2021/12/18 06:58:37;;;;;;;36.22;20.08;;;5.70;99.90;;;;;;4965697;28;112472;-66
2021/12/18 07:01:05;;;;;;;31.77;19.08;;;5.60;99.90;;;;;;4965245;28;112566;-61
2021/12/18 07:03:32;;;;;;;36.03;19.17;;;5.60;99.90;;;;;;4965123;28;113501;-64
2021/12/18 07:05:58;;;;;;;28.88;18.10;;;5.60;99.90;;;;;;4964770;28;112716;-65
2021/12/18 07:08:23;;;;;;;31.15;18.58;;;5.60;99.90;;;;;;4964476;28;112502;-65
2021/12/18 07:10:49;;;;;;;36.13;19.33;;;5.50;99.90;;;;;;4964864;28;112947;-65
2021/12/18 07:13:15;;;;;;;36.25;18.67;;;5.50;99.90;;;;;;4965397;28;112977;-64
2021/12/18 07:15:42;;;;;;;36.60;19.15;;;5.40;99.90;;;;;;4960383;28;114675;-63
2021/12/18 07:18:08;;;;;;;32.97;19.77;;;5.40;99.90;;;;;;4963681;28;112744;-65
2021/12/18 07:20:34;;;;;;;36.83;19.88;;;5.30;99.90;;;;;;4963722;28;112475;-63
2021/12/18 07:23:00;;;;;;;33.25;19.00;;;5.30;99.90;;;;;;4962758;28;114399;-64
2021/12/18 07:25:27;;;;;;;33.28;18.77;;;5.20;99.90;;;;;;4973223;22;113141;-60
2021/12/18 07:27:53;;;;;;;37.15;20.38;;;5.20;99.90;;;;;;4946006;28;112939;-60
2021/12/18 07:30:19;;;;;;;35.40;17.92;;;5.10;99.90;;;;;;4945892;28;112923;-63
2021/12/18 07:32:45;;;;;;;32.63;17.98;;;5.10;99.90;;;;;;4945189;28;113474;-61
2021/12/18 07:35:11;;;;;;;29.77;18.10;;;5.10;99.90;;;;;;4944789;28;113542;-59
2021/12/18 07:37:37;;;;;;;33.70;18.48;;;5.00;99.90;;;;;;4928231;28;112583;-60
2021/12/18 07:40:05;;;;;;;34.30;19.20;;;5.00;99.90;;;;;;4945485;28;112861;-59
2021/12/18 07:42:31;;;;;;;29.08;17.75;;;5.00;99.90;;;;;;4944468;28;113607;-62
2021/12/18 07:44:58;;;;;;;32.15;18.95;;;5.00;99.90;;;;;;4945143;28;113529;-61
2021/12/18 07:47:24;;;;;;;32.40;18.27;;;5.00;99.90;;;;;;4939765;28;114085;-62
2021/12/18 07:49:50;;;;;;;30.50;17.02;;;4.90;99.90;;;;;;4949668;28;112632;-61
2021/12/18 07:52:16;;;;;;;32.70;18.27;;;4.90;99.90;;;;;;4947232;28;113087;-65
2021/12/18 07:54:41;;;;;;;27.38;17.40;;;4.90;99.90;;;;;;4955849;28;112488;-62
2021/12/18 07:57:08;;;;;;;29.40;17.95;;;5.00;99.90;;;;;;4944097;28;114219;-62
2021/12/18 07:59:34;;;;;;;30.48;18.20;;;4.90;99.90;;;;;;4943772;28;112373;-62
2021/12/18 08:02:01;;;;;;;27.40;17.65;;;5.00;99.90;;;;;;4943900;28;115238;-62
2021/12/18 08:04:27;;;;;;;28.58;19.00;;;5.00;99.90;;;;;;4944001;28;113031;-63
2021/12/18 08:06:53;;;;;;;27.50;17.38;;;5.00;99.90;;;;;;4944037;28;112594;-62
2021/12/18 08:09:18;;;;;;;29.70;16.02;;;5.00;99.90;;;;;;4944206;28;112655;-65
2021/12/18 08:11:44;;;;;;;28.10;17.98;;;5.00;99.90;;;;;;4943997;28;114453;-62
2021/12/18 08:14:10;;;;;;;26.58;17.00;;;5.00;99.90;;;;;;4944208;28;113383;-61
2021/12/18 08:16:40;;;;;;;31.80;16.92;;;5.00;99.90;;;;;;4952336;22;112673;-61
2021/12/18 08:19:05;;;;;;;23.05;14.93;;;5.00;99.90;;;;;;4941882;28;112675;-67
2021/12/18 08:21:31;;;;;;;23.40;14.18;;;5.00;99.90;;;;;;4947209;28;113415;-67
2021/12/18 08:23:57;;;;;;;22.88;15.48;;;5.00;99.90;;;;;;4962767;28;113315;-66
2021/12/18 08:26:23;;;;;;;24.75;14.80;;;5.10;99.90;;;;;;4954141;28;114885;-68
2021/12/18 08:28:49;;;;;;;22.67;15.60;;;5.10;99.90;;;;;;4939769;28;112676;-69
2021/12/18 08:31:15;;;;;;;23.13;14.98;;;5.10;99.90;;;;;;4943721;28;112935;-68
2021/12/18 08:33:40;;;;;;;23.77;15.68;;;5.10;99.90;;;;;;4941918;28;115518;-67
2021/12/18 08:36:06;;;;;;;21.23;14.73;;;5.10;99.90;;;;;;4943680;28;112655;-68
2021/12/18 08:38:32;;;;;;;22.42;14.35;;;5.10;99.90;;;;;;4944539;28;112623;-71
2021/12/18 08:40:58;;;;;;;24.52;18.52;;;5.20;99.90;;;;;;4944205;28;113361;-67
2021/12/18 08:43:24;;;;;;;34.65;21.17;;;5.20;99.90;;;;;;4926726;28;114220;-68
2021/12/18 08:45:51;;;;;;;34.42;24.05;;;5.20;99.90;;;;;;4944601;28;112710;-69
2021/12/18 08:48:17;;;;;;;35.33;24.77;;;5.30;99.90;;;;;;4944429;28;112689;-68
2021/12/18 08:50:43;;;;;;;35.58;24.15;;;5.30;99.90;;;;;;4943083;28;115012;-68
2021/12/18 08:53:09;;;;;;;34.15;24.88;;;5.30;99.90;;;;;;4943480;28;112540;-68
2021/12/18 08:55:35;;;;;;;33.90;24.55;;;5.40;99.90;;;;;;4946999;28;112651;-69
2021/12/18 08:58:00;;;;;;;37.53;24.75;;;5.40;99.90;;;;;;4946754;28;112447;-68
2021/12/18 09:00:30;;;;;;;29.00;20.60;;;5.50;99.90;;;;;;4947453;28;113198;-68
2021/12/18 09:02:57;;;;;;;;;;;5.50;99.90;;;;;;4947852;28;114229;-74
2021/12/18 09:05:23;;;;;;;21.83;14.90;;;5.50;99.90;;;;;;4949954;28;112558;-70
2021/12/18 09:07:49;;;;;;;22.70;15.45;;;5.60;99.90;;;;;;4944167;28;112842;-69
2021/12/18 09:10:16;;;;;;;20.80;12.98;;;5.70;99.90;;;;;;4946197;28;113329;-67
2021/12/18 09:12:43;;;;;;;18.35;11.07;;;5.70;99.90;;;;;;4970482;28;112794;-68
2021/12/18 09:15:09;;;;;;;18.02;11.80;;;5.80;99.90;;;;;;4935907;28;112836;-69
2021/12/18 09:17:35;;;;;;;18.95;10.77;;;5.90;99.90;;;;;;4943241;28;112980;-70
2021/12/18 09:20:02;;;;;;;16.42;11.27;;;6.00;99.90;;;;;;4931886;28;113612;-68
2021/12/18 09:22:28;;;;;;;18.50;11.65;;;6.00;99.90;;;;;;4946268;28;113508;-69
2021/12/18 09:24:54;;;;;;;19.27;11.32;;;6.10;99.90;;;;;;4945919;28;112716;-68
2021/12/18 09:27:20;;;;;;;19.63;11.27;;;6.20;99.90;;;;;;4938447;28;112745;-71
2021/12/18 09:29:46;;;;;;;22.63;13.00;;;6.30;99.90;;;;;;4946623;22;114433;-63
2021/12/18 09:32:11;;;;;;;24.13;13.02;;;6.40;99.90;;;;;;4955401;28;114397;-62
2021/12/18 09:34:37;;;;;;;23.30;12.60;;;6.50;99.90;;;;;;4965925;28;112534;-62
2021/12/18 09:37:04;;;;;;;23.85;12.75;;;6.60;99.90;;;;;;4998321;22;114324;-67
2021/12/18 09:39:29;;;;;;;17.73;12.07;;;6.70;99.90;;;;;;4978966;28;113183;-68
2021/12/18 09:41:55;;;;;;;19.13;12.18;;;6.80;99.90;;;;;;4986458;28;112386;-69
2021/12/18 09:44:26;;;;;;;21.35;12.32;;;6.90;99.90;;;;;;4982092;28;113193;-68
2021/12/18 09:46:52;;;;;;;21.23;12.20;;;7.00;99.90;;;;;;4987178;28;113175;-70
2021/12/18 09:49:19;;;;;;;20.25;11.48;;;7.00;99.90;;;;;;5016144;22;113189;-67
2021/12/18 09:51:46;;;;;;;21.00;12.27;;;7.10;99.90;;;;;;4980351;28;113506;-66
2021/12/18 09:54:12;;;;;;;22.08;11.60;;;7.10;99.90;;;;;;4987153;28;112583;-72
2021/12/18 09:56:39;;;;;;;21.42;12.52;;;7.20;99.90;;;;;;4986519;28;112873;-69
2021/12/18 09:59:06;;;;;;;23.65;13.40;;;7.20;99.90;;;;;;4979624;22;114075;-65
2021/12/18 10:01:33;;;;;;;19.77;12.07;;;7.20;99.90;;;;;;4965361;28;113473;-64
2021/12/18 10:04:01;;;;;;;18.45;11.70;;;7.30;99.90;;;;;;4965453;28;112435;-63
2021/12/18 10:06:36;;;;;;;20.13;12.43;;;7.40;99.90;;;;;;4963439;28;112664;-62
2021/12/18 10:09:10;;;;;;;17.13;10.70;;;7.40;99.90;;;;;;4958006;28;113147;-66
2021/12/18 10:11:52;;;;;;;20.45;11.57;;;7.40;99.90;;;;;;4965442;28;112338;-62
2021/12/18 10:14:30;;;;;;;16.38;11.07;;;7.50;99.90;;;;;;4950084;28;112495;-64
2021/12/18 10:16:56;;;;;;;19.13;10.98;;;7.60;99.90;;;;;;4960531;28;112928;-65
2021/12/18 10:19:35;;;;;;;19.80;11.65;;;7.70;99.90;;;;;;4958603;28;113503;-66
2021/12/18 10:22:06;;;;;;;20.98;12.70;;;7.80;99.90;;;;;;4965204;28;112597;-65
2021/12/18 10:24:35;;;;;;;16.20;10.55;;;7.90;99.90;;;;;;4949500;28;112611;-66
2021/12/18 10:27:14;;;;;;;15.38;10.82;;;8.00;99.90;;;;;;4959386;28;112734;-62
2021/12/18 10:29:40;;;;;;;18.48;10.27;;;8.10;99.90;;;;;;4954798;28;115737;-62
2021/12/18 10:32:13;;;;;;;15.52;9.65;;;8.20;99.90;;;;;;4949634;28;113960;-62
2021/12/18 10:34:41;;;;;;;18.30;11.55;;;8.30;99.90;;;;;;4951643;28;112711;-63
2021/12/18 10:37:20;;;;;;;15.63;10.13;;;8.40;99.90;;;;;;4966408;28;112650;-64
2021/12/18 10:39:55;;;;;;;16.10;10.20;;;8.50;99.90;;;;;;4952783;28;113154;-62
2021/12/18 10:42:42;;;;;;;14.63;7.97;;;8.60;99.90;;;;;;4962165;28;113369;-61
2021/12/18 10:45:22;;;;;;;15.15;8.90;;;8.70;99.90;;;;;;4954809;28;112678;-66
2021/12/18 10:48:06;;;;;;;13.43;8.15;;;8.80;99.90;;;;;;4963970;28;112560;-62
2021/12/18 10:50:53;;;;;;;12.80;7.53;;;8.90;99.90;;;;;;4951749;28;113762;-61
2021/12/18 10:53:24;;;;;;;13.90;8.40;;;9.00;99.90;;;;;;4956691;28;113823;-65
2021/12/18 10:55:54;;;;;;;12.13;8.23;;;9.10;99.90;;;;;;4965122;28;112691;-64
2021/12/18 10:58:24;;;;;;;11.80;8.27;;;9.20;99.90;;;;;;4956159;28;112802;-63
2021/12/18 11:00:55;;;;;;;14.48;8.73;;;9.30;99.90;;;;;;4959675;28;113231;-65
2021/12/18 11:03:45;;;;;;;16.92;9.93;;;9.40;99.90;;;;;;4955839;28;112532;-63
2021/12/18 11:06:19;;;;;;;13.15;8.18;;;9.60;99.90;;;;;;4950848;28;112673;-65
2021/12/18 11:09:08;;;;;;;16.40;9.05;;;9.60;99.90;;;;;;4955341;28;112867;-62
2021/12/18 11:14:13;;;;;;;13.05;8.93;;;9.90;99.90;;;;;;4961325;28;112649;-62
2021/12/18 11:16:41;;;;;;;14.48;7.95;;;10.00;99.90;;;;;;4949565;28;112487;-64
2021/12/18 11:19:13;;;;;;;20.92;10.45;;;10.20;99.90;;;;;;4956034;28;113322;-65
2021/12/18 11:21:50;;;;;;;19.58;9.38;;;10.30;99.90;;;;;;4945910;28;113244;-65
2021/12/18 11:24:16;;;;;;;15.88;9.15;;;10.40;99.90;;;;;;4961740;28;112577;-61
2021/12/18 11:26:55;;;;;;;17.80;8.93;;;10.50;99.90;;;;;;4965223;28;112510;-65
2021/12/18 11:29:23;;;;;;;14.48;9.00;;;10.60;99.90;;;;;;4965136;28;112692;-63
2021/12/18 11:31:49;;;;;;;15.07;8.75;;;10.80;99.90;;;;;;4964535;28;113324;-65
2021/12/18 11:34:16;;;;;;;11.93;8.18;;;11.00;99.90;;;;;;4979960;28;113746;-65
2021/12/18 11:36:44;;;;;;;15.93;10.15;;;11.30;99.90;;;;;;4965020;28;112793;-63
2021/12/18 11:39:12;;;;;;;13.52;9.30;;;11.70;99.90;;;;;;4965200;28;112772;-64
2021/12/18 11:41:39;;;;;;;19.92;9.57;;;12.10;99.90;;;;;;4963913;28;113166;-63
2021/12/18 11:44:25;;;;;;;12.50;8.65;;;12.50;99.90;;;;;;4964685;28;112830;-64
2021/12/18 11:46:51;;;;;;;12.57;8.77;;;13.10;99.90;;;;;;4965326;28;113085;-65
2021/12/18 11:49:16;;;;;;;16.30;9.75;;;13.60;99.90;;;;;;4965159;28;112841;-63
2021/12/18 11:52:03;;;;;;;15.00;9.80;;;14.30;99.90;;;;;;4964450;28;114408;-63
2021/12/18 11:55:00;;;;;;;13.07;9.32;;;14.90;99.90;;;;;;4964483;28;113460;-63
2021/12/18 11:58:00;;;;;;;15.82;9.48;;;15.60;99.90;;;;;;4956970;28;112583;-64
2021/12/18 12:00:40;;;;;;;20.00;8.73;;;16.30;99.90;;;;;;4958034;28;112588;-65
2021/12/18 12:03:08;;;;;;;17.10;9.48;;;16.90;99.90;;;;;;4965091;28;112897;-64
2021/12/18 12:05:37;;;;;;;15.25;8.73;;;17.40;99.90;;;;;;4964474;28;112825;-63
2021/12/18 12:08:43;;;;;;;15.27;8.90;;;18.00;99.90;;;;;;4965158;28;112520;-63
2021/12/18 12:11:21;;;;;;;15.55;9.30;;;18.60;99.90;;;;;;4965548;28;112705;-64
2021/12/18 12:13:56;;;;;;;16.58;10.35;;;19.00;97.50;;;;;;4964659;28;115443;-63
2021/12/18 12:16:47;;;;;;;26.30;12.05;;;19.40;96.20;;;;;;4963753;28;113827;-65
2021/12/18 12:19:34;;;;;;;24.40;11.85;;;19.80;95.00;;;;;;4964460;28;112652;-64
2021/12/18 12:22:05;;;;;;;15.93;9.73;;;20.10;93.80;;;;;;4964691;28;112838;-63
2021/12/18 12:24:51;;;;;;;25.73;12.57;;;20.50;92.50;;;;;;4964242;28;113034;-63
2021/12/18 12:27:31;;;;;;;17.83;11.75;;;20.80;91.70;;;;;;4963826;28;112843;-64
2021/12/18 12:30:00;;;;;;;19.45;11.65;;;21.20;90.50;;;;;;4963358;28;112624;-62
2021/12/18 12:32:29;;;;;;;20.38;11.45;;;21.50;89.00;;;;;;4963547;28;112643;-64
2021/12/18 12:35:03;;;;;;;28.70;13.02;;;21.80;88.30;;;;;;4963869;28;114466;-63
2021/12/18 12:37:44;;;;;;;22.17;11.95;;;22.10;87.00;;;;;;4963390;28;113567;-64
2021/12/18 12:40:28;;;;;;;27.02;11.65;;;22.20;86.20;;;;;;4965045;28;112662;-64
2021/12/18 12:43:14;;;;;;;20.38;10.93;;;22.50;87.80;;;;;;4964383;28;112464;-63
2021/12/18 12:45:43;;;;;;;19.45;10.85;;;23.00;88.90;;;;;;4963100;28;113756;-63
2021/12/18 12:48:09;;;;;;;20.03;10.10;;;23.30;90.10;;;;;;4963657;28;113221;-64
2021/12/18 12:50:36;;;;;;;20.33;11.00;;;23.60;87.10;;;;;;4964145;28;112381;-64
2021/12/18 12:53:05;;;;;;;21.60;11.43;;;24.00;87.50;;;;;;4964751;28;112943;-64
2021/12/18 12:55:47;;;;;;;19.38;10.38;;;24.40;85.60;;;;;;4964306;28;113002;-63
2021/12/18 12:58:19;;;;;;;17.05;10.77;;;24.50;84.60;;;;;;4961894;28;113506;-64
2021/12/18 13:00:47;;;;;;;19.42;12.32;;;24.90;83.70;;;;;;4963758;28;112598;-63
2021/12/18 13:03:18;;;;;;;16.52;10.48;;;25.00;81.60;;;;;;4963954;28;113685;-63
2021/12/18 13:05:53;;;;;;;25.50;13.60;;;25.20;80.00;;;;;;4961974;28;114284;-65
2021/12/18 13:08:20;;;;;;;17.65;11.18;;;25.20;80.00;;;;;;4963231;28;113714;-61
2021/12/18 13:10:48;;;;;;;15.48;9.88;;;25.60;78.60;;;;;;4957413;28;112763;-63
2021/12/18 13:13:18;;;;;;;17.33;10.02;;;25.90;78.00;;;;;;4945231;28;112797;-64